Hauptseite
METAR-TAF:

METAR-TAF

Flughäfen :

Paderborn-Lippstadt, Deutschland

Flughafen Paderborn/Lippstadt

Breite: 51-37N, Länge: 008-37E, Höhe: 213 m

Beobachtung

Neuester Wetterbericht von vor 18 Minuten, um 07:50 UTC
Wind 14 kt aus Ost
Temperatur 6°C
Luftfeuchtigkeit 70%
Luftdruck 1027 hPa
Sichtweite 10 km oder mehr
Durchbrochene Bewölkung in der Höhe von 1900 ft

METAR: EDLP 240750Z 10014KT 9999 BKN019 06/01 Q1027

Zeit: 09:08 (08:08 UTC)

Prognose

Neuester Wetterbericht von vor 2 Stunden und 48 Minuten, um 05:20 UTC
Gültige Prognose vom 24 um 06 UTC bis 25 um 06 UTC
Wind 10 kt aus Ost
Sichtweite 10 km oder mehr
Aufgelockert bewölkt in der Höhe von 2000 ft
Übergehend zu
vom 24 um 19 UTC bis 24 um 22 UTC
Wind 5 kt aus Ost

TAF: EDLP 240520Z 2406/2506 09010KT 9999 SCT020 BECMG 2419/2422 10005KT

Wetterbeobachtungen und Prognosen von mehr als 4000 Flughäfen (METAR und TAF Bericht).

Die verfügbaren Stationen werden durch gelbe und rote Markierungen auf der Karte dargestellt.

Führen Sie die Maus auf sie, um den Namen der Station zu sehen.

Darauf klicken, um die Beobachtung von Wetterbeobachtungen und Prognosen zu sehen.

Um die Karte zu ändern : klicken Sie auf den grünen Tasten mit einem schwarzen Kreuz Zum Vergrößern, auf den grünen Button mit einem Gedankenstrich zu verkleinern, oder auf die grünen Pfeile für benachbarte Karten.


METAR-TAF: